Terminal Aerodrome Forecast
Issued by NWS

Home | Current Version | Previous Version | Text Only | Print | Product List | Glossary On
Versions: 1 2 3 4 5 6 7 8 9 10 11 12 13 14 15 16
000
FTUS45 KABQ 041100 RRA
TAFSAF
TAF
KSAF 041144Z 0412/0512 01006KT P6SM VCSH BKN090
     FM041300 04006KT P6SM -SHRA SCT030 BKN060
     FM041600 20008KT P6SM VCSH BKN060
     FM042000 14020KT P6SM VCTS BKN060CB
     FM042200 12015KT P6SM -SHRA OVC040
      TEMPO 0423/0503 5SM TSRA BR OVC025CB=

USA.gov is the U.S. government's official web portal to all federal, state and local government web resources and services.